Terminal Aerodrome Forecast
Issued by NWS

Home | Current Version | Previous Version | Text Only | Print | Product List | Glossary On
Versions: 1 2 3 4 5 6 7 8 9 10 11 12 13 14 15
331
FTUS44 KLZK 090536
TAFADF
TAF
KADF 090536Z 0906/1006 28008KT P6SM SKC
     FM091500 31012G22KT P6SM SKC
     FM100000 32005KT P6SM SKC=

USA.gov is the U.S. government's official web portal to all federal, state and local government web resources and services.